Weather observations for the past three days for
Munising - Munising Lakeshore Observation
Metric (Imperial)
Date Time (edt) Wind (kph) Vis. (km) Weather Sky Cond. Temperature (ºC) Relative Humidity Wind Chill (°C) Heat Index (°C) Pressure Precipitation (cm)
Air Dwpt 6 hour altimeter (cm) sea level (mb) 1 hr 3 hr 6 hr
Max. Min.
07 00:56 S 7 0.00 NULL NULL -0.6 -3.9 79% -3 75.95 1013.2
06 23:56 S 7 0.00 NULL NULL 0 -3.9 75% -2 75.97 1013.7
06 22:56 S 7 0.00 NULL NULL 0.6 -3.9 72% -1 75.97 1013.7
06 21:56 Calm 0.00 NULL NULL 2.2 -3.9 64% 75.97 1013.7
06 20:56 NW 6 0.00 NULL NULL 3.3 -3.9 60% 75.97 1013.5
06 19:56 NW 9 0.00 NULL NULL 3.3 -5 3.9 3.3 55% 1 75.97 1013.5
06 18:56 NW 17 0.00 NULL NULL 3.9 -5 53% 0 75.95 1013.3
06 17:56 N 11 0.00 NULL NULL 3.9 -5 53% 1 75.95 1013.3
06 16:56 N 15 0.00 NULL NULL 3.9 -4.4 55% 1 75.95 1013.2
06 15:56 N 19 0.00 NULL NULL 3.3 -4.4 57% -1 75.95 1013.4
06 14:56 NW 19 0.00 NULL NULL 3.3 -6.7 48% -1 75.95 1013.2
06 13:56 N 13 0.00 NULL NULL 3.3 -6.7 3.3 2.2 48% 0 75.95 1013.2
06 12:56 N 22 0.00 NULL NULL 3.3 -6.7 48% -1 75.95 1013.3
06 11:56 NW 15 G 30 0.00 NULL NULL 3.3 -5.6 52% 0 75.95 1013.1
06 10:56 Vrbl 9 0.00 NULL NULL 3.3 -6.1 51% 1 75.92 1012.7
06 09:56 NW 17 0.00 NULL NULL 3.3 -6.7 48% -0 75.92 1012.7
06 08:56 NW 17 G 31 0.00 NULL NULL 3.3 -6.1 51% -0 75.87 1012.3
06 07:56 Vrbl 7 0.00 NULL NULL 2.2 -5 2.2 1.7 59% 0 75.84 1011.8
06 06:56 SW 9 0.00 NULL NULL 2.2 -5.6 57% -0 75.79 1011.2
06 05:56 SW 7 0.00 NULL NULL 1.7 -5.6 59% -0 75.79 1011.2
06 04:56 SW 7 0.00 NULL NULL 1.7 -6.1 57% -0 75.77 1011.0
06 03:56 SW 9 0.00 NULL NULL 1.7 -6.1 57% -1 75.77 1011.0
06 02:56 SW 9 0.00 NULL NULL 1.7 -6.1 57% -1 75.77 1010.7
06 01:56 SW 9 0.00 NULL NULL 2.2 -5.6 3.3 2.2 57% -0 75.77 1010.9
06 00:56 Calm 0.00 NULL NULL 2.2 -6.1 55% 75.77 1010.7
05 23:56 NW 7 0.00 NULL NULL 2.8 -6.1 52% 1 75.77 1010.6
05 22:56 NW 15 0.00 NULL NULL 2.8 -5.6 54% -1 75.77 1010.8
05 21:56 N 13 0.00 NULL NULL 2.2 -2.2 73% -1 75.77 1010.7
05 20:56 N 19 G 33 0.00 NULL NULL 2.8 -2.8 67% -1 75.69 1009.8
05 19:56 N 13 0.00 NULL NULL 2.8 -2.8 3.3 2.8 67% -0 75.69 1009.6
05 18:56 N 19 G 39 0.00 NULL NULL 3.3 -2.8 65% -1 75.67 1009.5
05 17:56 N 20 G 31 0.00 NULL NULL 3.3 -3.3 62% -1 75.64 1009.1
05 16:56 NW 24 G 37 0.00 NULL NULL 3.3 -3.3 62% -1 75.59 1008.5
05 15:56 N 22 G 39 0.00 NULL NULL 3.3 -1.7 70% -1 75.57 1008.2
05 14:56 NW 20 G 39 0.00 NULL NULL 2.8 -0.6 79% -1 75.54 1007.8
05 13:56 N 24 0.00 NULL NULL 3.3 -0.6 5 2.2 76% -1 75.46 1006.8 0.03
05 12:56 NW 24 G 33 0.00 NULL NULL 3.3 -1.1 73% -1 75.44 1006.3
05 11:56 NW 26 0.00 NULL NULL 3.3 -0.6 76% -1 75.39 1005.7 0.03
05 10:56 Calm 0.00 NULL NULL 4.4 0 73% 75.34 1004.9
05 09:56 NW 9 0.00 NULL NULL 2.8 0.6 86% 1 75.34 1004.9
05 08:56 NW 15 0.00 NULL NULL 3.9 -2.2 65% 1 75.29 1004.1
05 07:56 NW 9 0.00 NULL NULL 3.9 -2.8 6.1 2.8 62% 2 75.26 1003.8
05 06:56 W 9 0.00 NULL NULL 2.8 -2.2 70% 1 75.21 1003.1
05 05:56 NW 7 0.00 NULL NULL 2.8 -0.6 79% 1 75.13 1002.2
05 04:56 NW 7 0.00 NULL NULL 3.3 0 79% 2 75.11 1001.9
05 03:56 N 13 0.00 NULL NULL 5 0 70% 2 75.08 1001.4
05 02:56 NW 19 0.00 NULL NULL 5.6 -0.6 65% 2 75.06 1001.0
05 01:56 NW 13 G 35 0.00 NULL NULL 6.1 -1.1 7.8 6.1 60% 4 75.03 1000.7
05 00:56 NW 15 G 30 0.00 NULL NULL 6.7 -2.2 53% 4 74.98 999.9
04 23:56 Vrbl 11 0.00 NULL NULL 7.2 -1.7 54% 5 74.9 998.8
04 21:56 Vrbl 9 0.00 NULL NULL 6.7 -0.6 60% 5 74.8 997.6
04 20:56 N 19 G 48 0.00 NULL NULL 6.7 0 63% 4 74.73 996.6
04 19:56 N 13 0.00 NULL NULL 6.7 0.6 9.4 6.7 65% 4 74.68 995.9
04 18:56 N 24 G 35 0.00 NULL NULL 8.3 0 56% 5 74.63 995.3
04 17:56 N 15 0.00 NULL NULL 8.3 1.1 61% 6 74.6 995.0
04 16:56 N 13 0.00 NULL NULL 9.4 1.7 59% 8 74.55 994.1
04 15:56 Calm 0.00 NULL NULL 7.2 3.3 77% 74.5 993.5
04 14:56 NE 15 0.00 NULL NULL 8.3 3.3 71% 6 74.45 992.8
04 13:56 NW 6 0.00 NULL NULL 7.8 3.3 15.6 6.7 73% 74.4 992.3
04 12:56 N 13 0.00 NULL NULL 9.4 3.3 66% 8 74.45 992.9
04 11:56 S 17 G 28 0.00 NULL NULL 15.6 2.8 42% 74.32 991.0
04 10:56 S 20 G 37 0.00 NULL NULL 14.4 2.8 46% 74.24 990.1
04 09:56 S 19 G 35 0.00 NULL NULL 12.8 2.2 49% 74.37 991.7
04 08:56 S 19 G 35 0.00 NULL NULL 8.9 3.9 71% 6 74.47 993.3
04 06:56 S 20 G 31 0.00 NULL NULL 7.2 3.3 77% 4 74.63 995.4
04 05:56 S 15 0.00 NULL NULL 6.1 2.8 80% 3 74.7 996.4
04 04:56 S 15 0.00 NULL NULL 6.7 2.8 76% 4 74.8 997.5
04 03:56 S 13 G 30 0.00 NULL NULL 5.6 3.3 85% 3 74.85 998.3
04 02:56 S 15 0.00 NULL NULL 5.6 3.9 89% 3 74.93 999.1
04 01:56 S 13 0.00 NULL NULL 6.1 3.9 11.7 4.4 86% 4 75.01 1000.0
Date Time (edt) Wind (kph) Vis. (km) Weather Sky Cond. Air Dwpt Max. Min. Relative Humidity Wind Chill (°C) Heat Index (°C) altimeter (cm) sea level (mb) 1 hr 3 hr 6 hr
6 hour
Temperature (ºC) Pressure Precipitation (cm)